Terminal Aerodrome Forecast
Issued by NWS Jackson, MS

Home | Current Version | Previous Version | Text Only | Print | Product List | Glossary On
Versions: 1 2 3 4 5 6 7 8 9 10 11 12
000
FTUS44 KJAN 221727
TAFHBG
TAF
KHBG 221727Z 2218/2318 17012G19KT P6SM VCTS BKN015CB OVC025
     FM222100 21011KT P6SM OVC040
     FM230200 29007KT P6SM OVC050
     FM230800 30004KT P6SM OVC007
     FM231000 29005KT 5SM BR OVC004
     FM231400 27009KT P6SM OVC010
     FM231600 27009KT P6SM OVC040=

USA.gov is the U.S. government's official web portal to all federal, state and local government web resources and services.